Time;durP1;ratioP1;P1;durP2;ratioP2;P2;SDS_P1;SDS_P2;PMS_P1;PMS_P2;Temp;Humidity;BMP_temperature;BMP_pressure;BME280_temperature;BME280_humidity;BME280_pressure;Samples;Min_cycle;Max_cycle;Signal;HPM_P1;HPM_P2
2022/09/30 00:01:50;;;;;;;5.90;4.10;;;20.80;62.30;;;;;;4969242;28;20026;-72
2022/09/30 00:04:18;;;;;;;5.55;3.80;;;20.70;62.30;;;;;;4969403;28;20507;-72
2022/09/30 00:06:45;;;;;;;7.38;4.00;;;20.70;62.30;;;;;;4970072;28;20027;-72
2022/09/30 00:09:11;;;;;;;5.65;3.70;;;20.70;62.40;;;;;;4970046;28;20035;-72
2022/09/30 00:11:38;;;;;;;6.20;4.05;;;20.70;62.40;;;;;;4952843;28;20042;-72
2022/09/30 00:14:04;;;;;;;7.78;4.18;;;20.70;62.40;;;;;;4970300;28;20039;-72
2022/09/30 00:16:33;;;;;;;7.72;3.85;;;20.70;62.50;;;;;;4971228;28;20056;-72
2022/09/30 00:18:59;;;;;;;7.88;3.90;;;20.70;62.40;;;;;;4972368;28;20486;-72
2022/09/30 00:21:27;;;;;;;6.93;3.95;;;20.70;63.00;;;;;;4973588;28;20067;-72
2022/09/30 00:23:53;;;;;;;6.47;3.70;;;20.70;62.40;;;;;;4973833;28;20545;-72
2022/09/30 00:26:21;;;;;;;5.70;3.85;;;20.70;62.50;;;;;;4972236;28;20479;-72
2022/09/30 00:28:56;;;;;;;8.90;3.92;;;20.70;62.50;;;;;;4973171;28;20046;-72
2022/09/30 00:31:23;;;;;;;5.07;3.60;;;20.70;62.50;;;;;;4956141;28;20067;-72
2022/09/30 00:34:05;;;;;;;5.53;3.83;;;20.70;62.50;;;;;;4972540;28;20027;-71
2022/09/30 00:36:41;;;;;;;6.68;4.10;;;20.70;62.50;;;;;;4971833;28;20585;-72
2022/09/30 00:39:09;;;;;;;7.40;3.80;;;20.70;62.40;;;;;;4971804;28;20114;-71
2022/09/30 00:41:36;;;;;;;6.03;4.03;;;20.70;62.40;;;;;;4973311;28;20027;-71
2022/09/30 00:44:41;;;;;;;5.65;3.60;;;20.70;62.50;;;;;;4955986;28;20074;-71
2022/09/30 00:47:27;;;;;;;6.57;3.90;;;20.70;62.50;;;;;;4972078;28;20034;-71
2022/09/30 00:49:57;;;;;;;4.18;3.35;;;20.70;62.50;;;;;;4972048;28;20031;-72
2022/09/30 00:52:23;;;;;;;5.22;3.42;;;20.70;62.50;;;;;;4972358;28;20480;-71
2022/09/30 00:54:50;;;;;;;4.70;3.33;;;20.70;62.50;;;;;;4973075;28;20022;-71
2022/09/30 00:57:16;;;;;;;5.75;3.80;;;20.70;62.50;;;;;;4971909;28;20727;-72
2022/09/30 00:59:46;;;;;;;7.45;3.80;;;20.70;62.40;;;;;;4971761;28;20027;-72
2022/09/30 01:02:13;;;;;;;6.65;4.00;;;20.70;62.40;;;;;;4972494;28;20031;-72
2022/09/30 01:04:41;;;;;;;6.03;4.00;;;20.70;62.30;;;;;;4972772;28;20042;-72
2022/09/30 01:07:08;;;;;;;5.60;3.70;;;20.70;62.20;;;;;;4972851;28;20113;-71
2022/09/30 01:09:37;;;;;;;6.07;3.63;;;20.70;62.20;;;;;;4972934;28;20027;-71
2022/09/30 01:12:09;;;;;;;5.03;3.75;;;20.70;62.20;;;;;;4971142;28;20530;-71
2022/09/30 01:14:36;;;;;;;5.70;3.58;;;20.70;62.20;;;;;;4972742;28;20031;-72
2022/09/30 01:17:24;;;;;;;6.18;3.60;;;20.70;62.20;;;;;;4972637;28;20030;-72
2022/09/30 01:20:17;;;;;;;6.75;3.47;;;20.70;62.20;;;;;;4971712;28;20031;-71
2022/09/30 01:23:25;;;;;;;5.03;3.35;;;20.70;62.30;;;;;;4972681;28;20110;-72
2022/09/30 01:25:53;;;;;;;4.88;3.17;;;20.70;62.30;;;;;;4971806;28;20035;-72
2022/09/30 01:28:49;;;;;;;5.30;3.50;;;20.70;62.30;;;;;;4971709;28;20038;-72
2022/09/30 01:31:30;;;;;;;4.95;3.40;;;20.70;62.30;;;;;;4971197;28;20500;-71
2022/09/30 01:34:24;;;;;;;6.18;3.38;;;20.70;63.00;;;;;;4971980;28;20023;-71
2022/09/30 01:37:07;;;;;;;5.22;3.55;;;20.70;62.40;;;;;;4970955;28;20027;-71
2022/09/30 01:39:59;;;;;;;5.38;3.60;;;20.70;62.40;;;;;;4972329;28;20391;-71
2022/09/30 01:42:44;;;;;;;4.78;3.38;;;20.70;62.40;;;;;;4946191;28;20442;-71
2022/09/30 01:45:26;;;;;;;5.60;3.60;;;20.70;62.50;;;;;;4971228;28;20054;-72
2022/09/30 01:48:21;;;;;;;5.07;3.25;;;20.70;62.30;;;;;;4972241;28;20030;-71
2022/09/30 01:51:03;;;;;;;5.75;3.60;;;20.70;62.30;;;;;;4972184;28;20399;-71
2022/09/30 01:53:38;;;;;;;5.82;3.60;;;20.70;62.30;;;;;;4971773;28;20118;-71
2022/09/30 01:56:49;;;;;;;6.05;3.72;;;20.70;62.40;;;;;;4971597;28;20544;-71
2022/09/30 01:59:18;;;;;;;6.60;3.58;;;20.70;62.30;;;;;;4938611;28;20463;-71
2022/09/30 02:01:53;;;;;;;5.78;3.83;;;20.70;62.30;;;;;;4970839;28;20096;-71
2022/09/30 02:04:30;;;;;;;4.20;3.10;;;20.70;62.30;;;;;;4971988;28;20088;-72
2022/09/30 02:07:01;;;;;;;5.05;3.25;;;20.70;62.30;;;;;;4971664;28;20031;-71
2022/09/30 02:09:42;;;;;;;5.25;3.38;;;20.70;62.30;;;;;;4970566;28;20045;-72
2022/09/30 02:12:12;;;;;;;5.25;3.55;;;20.70;62.40;;;;;;4955920;28;20082;-71
2022/09/30 02:14:50;;;;;;;6.45;3.63;;;20.70;62.40;;;;;;4971800;28;20027;-71
2022/09/30 02:17:28;;;;;;;5.73;3.53;;;20.70;62.30;;;;;;4971761;28;20050;-71
2022/09/30 02:20:11;;;;;;;4.80;3.20;;;20.70;62.30;;;;;;4971470;28;20034;-71
2022/09/30 02:22:48;;;;;;;4.88;3.50;;;20.70;62.20;;;;;;4971742;28;20041;-72
2022/09/30 02:25:28;;;;;;;5.10;3.33;;;20.70;62.20;;;;;;4969641;28;20130;-72
2022/09/30 02:28:04;;;;;;;5.05;3.38;;;20.70;62.20;;;;;;4971464;28;20423;-72
2022/09/30 02:30:35;;;;;;;4.72;3.35;;;20.70;62.10;;;;;;4970122;28;20397;-72
2022/09/30 02:33:07;;;;;;;7.18;3.60;;;20.70;62.00;;;;;;4971523;28;20035;-72
2022/09/30 02:35:35;;;;;;;5.15;3.60;;;20.70;62.10;;;;;;4953362;28;20031;-72
2022/09/30 02:38:17;;;;;;;4.80;3.28;;;20.60;62.20;;;;;;4970256;28;20027;-72
2022/09/30 02:40:49;;;;;;;7.40;3.30;;;20.60;62.20;;;;;;4969975;28;20043;-72
2022/09/30 02:43:17;;;;;;;3.90;3.03;;;20.70;62.30;;;;;;4970111;28;20110;-72
2022/09/30 02:45:49;;;;;;;5.70;3.53;;;20.70;62.20;;;;;;4971002;28;20069;-72
2022/09/30 02:48:44;;;;;;;5.32;3.50;;;20.60;62.30;;;;;;4969786;28;20038;-71
2022/09/30 02:51:43;;;;;;;4.75;3.22;;;20.60;62.30;;;;;;4969875;28;20101;-71
2022/09/30 02:54:37;;;;;;;4.28;3.00;;;20.60;62.30;;;;;;4970027;28;20031;-72
2022/09/30 02:57:14;;;;;;;4.90;3.17;;;20.60;62.30;;;;;;4945878;28;20067;-72
2022/09/30 02:59:40;;;;;;;4.68;3.00;;;20.60;62.80;;;;;;4952174;28;20167;-71
2022/09/30 03:02:06;;;;;;;5.13;3.42;;;20.60;62.30;;;;;;4951459;28;20031;-71
2022/09/30 03:04:34;;;;;;;6.15;3.28;;;20.60;62.30;;;;;;4951747;28;20031;-72
2022/09/30 03:07:00;;;;;;;5.03;3.28;;;20.60;62.20;;;;;;4951597;28;20035;-72
2022/09/30 03:09:27;;;;;;;4.15;3.17;;;20.60;62.30;;;;;;4934810;29;20377;-71
2022/09/30 03:12:15;;;;;;;4.65;3.13;;;20.60;62.30;;;;;;4950056;28;20431;-71
2022/09/30 03:15:11;;;;;;;4.88;3.20;;;20.60;62.30;;;;;;4951585;28;20031;-71
2022/09/30 03:17:54;;;;;;;6.07;3.58;;;20.60;62.30;;;;;;4950655;28;20105;-71
2022/09/30 03:20:32;;;;;;;5.32;3.40;;;20.60;62.30;;;;;;4950260;28;20066;-71
2022/09/30 03:23:45;;;;;;;5.40;3.35;;;20.60;62.30;;;;;;4950480;28;20031;-72
2022/09/30 03:26:45;;;;;;;5.85;3.30;;;20.60;62.30;;;;;;4939182;28;20035;-72
2022/09/30 03:29:17;;;;;;;5.13;3.10;;;20.60;62.20;;;;;;4950072;28;20488;-71
2022/09/30 03:31:58;;;;;;;3.78;2.78;;;20.60;62.20;;;;;;4954631;23;20044;-69
2022/09/30 03:34:45;;;;;;;6.13;3.03;;;20.60;62.20;;;;;;4929638;29;20031;-69
2022/09/30 03:37:29;;;;;;;4.10;3.03;;;20.60;62.20;;;;;;4932222;29;20050;-69
2022/09/30 03:40:09;;;;;;;5.05;3.00;;;20.60;62.20;;;;;;4932419;29;20508;-69
2022/09/30 03:42:34;;;;;;;;;;;20.60;62.10;;;;;;4950483;28;20119;-69
2022/09/30 03:45:15;;;;;;;4.18;3.28;;;20.60;62.10;;;;;;4950014;28;20001;-69
2022/09/30 03:47:44;;;;;;;5.75;3.10;;;20.60;62.00;;;;;;4949865;28;20042;-69
2022/09/30 03:50:15;;;;;;;4.65;3.10;;;20.60;62.10;;;;;;4950150;28;20039;-69
2022/09/30 03:52:41;;;;;;;4.85;3.28;;;20.60;62.10;;;;;;4954297;28;20056;-69
2022/09/30 03:55:10;;;;;;;3.83;2.92;;;20.60;62.10;;;;;;4953322;28;20024;-70
2022/09/30 03:57:36;;;;;;;5.15;3.03;;;20.60;62.00;;;;;;4951098;28;20201;-69
2022/09/30 04:00:05;;;;;;;5.22;3.05;;;20.60;62.10;;;;;;4955265;28;20062;-69
2022/09/30 04:02:31;;;;;;;4.75;3.25;;;20.60;62.20;;;;;;4953670;28;20031;-69
2022/09/30 04:04:57;;;;;;;5.20;3.13;;;20.60;62.20;;;;;;4966974;28;20034;-69
2022/09/30 04:07:24;;;;;;;5.15;3.42;;;20.60;62.20;;;;;;4963451;28;20476;-69
2022/09/30 04:09:50;;;;;;;5.65;3.33;;;20.60;62.20;;;;;;4953713;28;20090;-69
2022/09/30 04:12:16;;;;;;;4.20;3.08;;;20.60;62.20;;;;;;4953137;28;20031;-69
2022/09/30 04:14:42;;;;;;;5.78;3.10;;;20.60;62.30;;;;;;4954321;28;20027;-69
2022/09/30 04:17:08;;;;;;;4.90;3.00;;;20.60;62.30;;;;;;4953205;28;20031;-69
2022/09/30 04:19:38;;;;;;;4.68;3.10;;;20.60;62.20;;;;;;4954460;28;20059;-69
2022/09/30 04:22:05;;;;;;;4.20;3.15;;;20.60;62.30;;;;;;4953450;28;20098;-69
2022/09/30 04:24:32;;;;;;;4.15;2.90;;;20.60;62.20;;;;;;4953105;28;20067;-69
2022/09/30 04:26:58;;;;;;;5.57;2.88;;;20.60;62.20;;;;;;4955803;28;20559;-69
2022/09/30 04:29:24;;;;;;;4.60;3.10;;;20.60;62.30;;;;;;4973704;28;20117;-69
2022/09/30 04:31:50;;;;;;;5.28;3.13;;;20.60;62.20;;;;;;4968993;28;20491;-69
2022/09/30 04:34:16;;;;;;;5.53;3.05;;;20.60;62.20;;;;;;4941133;28;20035;-69
2022/09/30 04:36:42;;;;;;;3.65;2.90;;;20.60;62.20;;;;;;4971865;28;20031;-69
2022/09/30 04:39:08;;;;;;;4.43;3.22;;;20.50;62.10;;;;;;4954442;28;20031;-69
2022/09/30 04:41:34;;;;;;;5.40;3.33;;;20.60;62.20;;;;;;4965139;28;20047;-69
2022/09/30 04:44:05;;;;;;;5.60;3.10;;;20.60;62.20;;;;;;4955477;28;20089;-69
2022/09/30 04:46:35;;;;;;;4.65;2.85;;;20.60;62.30;;;;;;4953907;28;20027;-69
2022/09/30 04:49:05;;;;;;;4.68;3.00;;;20.60;62.20;;;;;;4952727;28;20067;-69
2022/09/30 04:51:31;;;;;;;5.32;3.05;;;20.60;62.30;;;;;;4953904;28;20031;-69
2022/09/30 04:53:58;;;;;;;6.07;3.70;;;20.60;62.20;;;;;;4961817;28;20396;-69
2022/09/30 04:56:25;;;;;;;4.75;3.15;;;20.60;62.10;;;;;;4955568;28;20034;-69
2022/09/30 04:58:53;;;;;;;4.80;3.10;;;20.60;62.00;;;;;;4971985;28;20030;-69
2022/09/30 05:01:20;;;;;;;5.18;3.20;;;20.60;62.00;;;;;;4971872;28;20039;-69
2022/09/30 05:03:46;;;;;;;5.10;3.30;;;20.60;62.00;;;;;;4933386;28;20034;-69
2022/09/30 05:06:13;;;;;;;5.03;3.20;;;20.50;61.80;;;;;;4949795;28;20117;-69
2022/09/30 05:08:41;;;;;;;4.50;3.33;;;20.60;61.90;;;;;;4951503;28;20035;-69
2022/09/30 05:11:09;;;;;;;4.80;3.20;;;20.60;61.90;;;;;;4952093;28;20509;-69
2022/09/30 05:13:38;;;;;;;5.00;3.05;;;20.60;62.00;;;;;;4957614;28;20035;-70
2022/09/30 05:16:05;;;;;;;5.47;3.17;;;20.60;62.00;;;;;;4971113;28;20383;-69
2022/09/30 05:18:33;;;;;;;5.63;2.92;;;20.60;62.00;;;;;;4938126;28;20024;-70
2022/09/30 05:20:59;;;;;;;4.35;3.20;;;20.60;61.90;;;;;;4951608;28;20484;-69
2022/09/30 05:23:29;;;;;;;5.38;3.13;;;20.50;62.00;;;;;;4952124;28;20046;-69
2022/09/30 05:25:55;;;;;;;4.82;2.97;;;20.50;62.00;;;;;;4951570;28;20125;-70
2022/09/30 05:28:21;;;;;;;4.72;3.10;;;20.50;62.00;;;;;;4957018;28;20034;-70
2022/09/30 05:30:49;;;;;;;4.82;3.25;;;20.60;62.10;;;;;;4967175;28;20522;-70
2022/09/30 05:33:15;;;;;;;4.70;3.00;;;20.50;62.00;;;;;;4935769;28;20121;-69
2022/09/30 05:35:43;;;;;;;4.83;3.33;;;20.50;62.00;;;;;;4951486;28;20027;-69
2022/09/30 05:38:09;;;;;;;4.53;3.22;;;20.50;62.00;;;;;;4962062;28;20170;-70
2022/09/30 05:40:40;;;;;;;5.07;3.30;;;20.50;62.00;;;;;;4935071;28;20031;-70
2022/09/30 05:43:06;;;;;;;5.45;3.30;;;20.50;62.00;;;;;;4957809;28;20077;-70
2022/09/30 05:45:33;;;;;;;5.22;3.28;;;20.50;62.00;;;;;;4955063;28;20118;-70
2022/09/30 05:47:59;;;;;;;4.40;3.05;;;20.50;62.00;;;;;;4950978;28;20479;-70
2022/09/30 05:50:26;;;;;;;6.82;3.30;;;20.50;62.00;;;;;;4952060;28;20043;-70
2022/09/30 05:52:52;;;;;;;4.65;3.13;;;20.50;62.00;;;;;;4952648;28;20122;-70
2022/09/30 05:55:19;;;;;;;4.45;3.17;;;20.50;61.90;;;;;;4952298;28;20035;-70
2022/09/30 05:57:48;;;;;;;4.57;3.08;;;20.50;61.90;;;;;;4951561;28;20063;-69
2022/09/30 06:00:14;;;;;;;4.90;3.50;;;20.50;61.90;;;;;;4952176;28;20139;-70
2022/09/30 06:02:41;;;;;;;3.60;2.72;;;20.50;61.90;;;;;;4951001;28;20487;-69
2022/09/30 06:05:08;;;;;;;5.63;3.50;;;20.50;61.90;;;;;;4952013;28;20586;-70
2022/09/30 06:07:35;;;;;;;4.55;3.00;;;20.50;61.80;;;;;;4952531;28;20032;-70
2022/09/30 06:10:07;;;;;;;3.92;3.00;;;20.50;61.80;;;;;;4950325;28;20024;-70
2022/09/30 06:12:36;;;;;;;5.32;3.50;;;20.50;61.80;;;;;;4951263;28;20054;-70
2022/09/30 06:15:02;;;;;;;4.97;3.50;;;20.50;61.80;;;;;;4934720;29;20035;-70
2022/09/30 06:17:29;;;;;;;4.18;2.88;;;20.50;61.70;;;;;;4951805;28;20030;-70
2022/09/30 06:19:55;;;;;;;5.40;3.40;;;20.50;61.60;;;;;;4950981;28;20031;-70
2022/09/30 06:22:21;;;;;;;5.22;3.35;;;20.60;61.60;;;;;;4952162;28;20464;-70
2022/09/30 06:24:47;;;;;;;4.65;3.30;;;20.50;61.70;;;;;;4951649;28;20033;-70
2022/09/30 06:27:13;;;;;;;4.85;3.22;;;20.60;61.60;;;;;;4952104;28;20035;-70
2022/09/30 06:29:39;;;;;;;5.32;3.38;;;20.60;61.70;;;;;;4950243;28;20051;-70
2022/09/30 06:32:05;;;;;;;5.60;3.63;;;20.60;62.20;;;;;;4951838;28;20117;-70
2022/09/30 06:34:31;;;;;;;5.28;3.45;;;20.50;61.50;;;;;;4951868;28;20035;-70
2022/09/30 06:36:58;;;;;;;5.07;3.35;;;20.60;61.70;;;;;;4950755;28;20118;-70
2022/09/30 06:39:25;;;;;;;7.13;3.72;;;20.50;61.70;;;;;;4951428;28;20047;-70
2022/09/30 06:41:51;;;;;;;5.28;3.25;;;20.50;61.70;;;;;;4934873;28;20039;-70
2022/09/30 06:44:24;;;;;;;6.10;3.83;;;20.60;61.90;;;;;;4959597;28;20457;-70
2022/09/30 06:46:49;;;;;;;5.30;3.45;;;20.50;61.70;;;;;;4953410;28;20117;-70
2022/09/30 06:49:15;;;;;;;5.15;3.38;;;20.60;61.80;;;;;;4970672;28;20060;-71
2022/09/30 06:51:41;;;;;;;5.53;3.67;;;20.50;61.80;;;;;;4947308;28;20039;-70
2022/09/30 06:54:07;;;;;;;6.35;3.63;;;20.50;61.80;;;;;;4951596;28;21043;-71
2022/09/30 06:56:34;;;;;;;5.30;3.40;;;20.60;61.80;;;;;;4951607;28;20132;-71
2022/09/30 06:59:00;;;;;;;6.90;3.90;;;20.50;61.70;;;;;;4951259;28;20110;-70
2022/09/30 07:01:27;;;;;;;4.93;3.50;;;20.50;61.80;;;;;;4951395;28;20562;-71
2022/09/30 07:03:56;;;;;;;5.15;3.78;;;20.60;61.80;;;;;;4953413;28;20089;-72
2022/09/30 07:06:24;;;;;;;5.63;3.83;;;20.60;61.80;;;;;;4957209;28;20038;-71
2022/09/30 07:08:52;;;;;;;5.10;3.38;;;20.50;61.70;;;;;;4950736;28;20039;-71
2022/09/30 07:11:18;;;;;;;6.07;3.67;;;20.60;61.90;;;;;;4949566;28;20561;-71
2022/09/30 07:13:45;;;;;;;5.32;3.65;;;20.60;61.80;;;;;;4950424;28;20039;-71
2022/09/30 07:16:16;;;;;;;4.95;3.40;;;20.50;61.80;;;;;;4951068;28;20472;-72
2022/09/30 07:18:44;;;;;;;5.18;3.50;;;20.60;61.90;;;;;;4950681;28;20058;-70
2022/09/30 07:21:14;;;;;;;5.50;3.30;;;20.60;61.90;;;;;;4950065;28;20099;-70
2022/09/30 07:23:46;;;;;;;5.55;3.60;;;20.50;61.90;;;;;;4934014;29;20074;-71
2022/09/30 07:26:18;;;;;;;6.07;3.70;;;20.50;61.90;;;;;;4950526;28;20428;-71
2022/09/30 07:28:44;;;;;;;4.63;3.15;;;20.50;61.80;;;;;;4958218;28;20093;-70
2022/09/30 07:31:14;;;;;;;5.18;3.42;;;20.60;61.90;;;;;;4960670;28;20039;-71
2022/09/30 07:33:40;;;;;;;5.65;3.45;;;20.60;62.00;;;;;;4965149;28;20407;-71
2022/09/30 07:36:08;;;;;;;5.45;3.60;;;20.60;62.10;;;;;;4972538;28;20030;-70
2022/09/30 07:38:37;;;;;;;5.43;3.63;;;20.60;61.90;;;;;;4972929;28;20038;-70
2022/09/30 07:41:10;;;;;;;4.70;3.38;;;20.60;61.60;;;;;;4973722;28;20391;-71
2022/09/30 07:43:37;;;;;;;5.97;3.15;;;20.70;62.10;;;;;;4974119;28;20038;-71
2022/09/30 07:46:09;;;;;;;5.25;3.10;;;20.70;61.90;;;;;;4972250;28;20035;-71
2022/09/30 07:48:41;;;;;;;5.40;3.53;;;20.70;61.80;;;;;;4972173;28;20030;-71
2022/09/30 07:51:10;;;;;;;5.38;3.70;;;20.70;61.70;;;;;;4956791;28;20038;-71
2022/09/30 07:53:35;;;;;;;6.28;3.80;;;20.70;61.90;;;;;;4956450;28;20043;-71
2022/09/30 07:56:03;;;;;;;7.20;3.42;;;20.70;61.80;;;;;;4953946;28;20031;-71
2022/09/30 07:58:29;;;;;;;4.95;3.53;;;20.70;61.90;;;;;;4953552;28;20035;-71
2022/09/30 08:00:55;;;;;;;5.22;3.40;;;20.70;62.00;;;;;;4952934;28;20043;-71
2022/09/30 08:03:21;;;;;;;4.78;3.22;;;20.70;62.20;;;;;;4954359;28;20063;-71
2022/09/30 08:05:47;;;;;;;5.50;3.60;;;20.70;62.00;;;;;;4953849;28;20074;-71
2022/09/30 08:08:15;;;;;;;5.00;3.42;;;20.70;62.00;;;;;;4954683;28;20043;-71
2022/09/30 08:10:41;;;;;;;5.05;3.30;;;20.70;62.20;;;;;;4960848;28;20035;-71
2022/09/30 08:13:08;;;;;;;5.00;3.50;;;20.70;62.10;;;;;;4956061;28;20038;-71
2022/09/30 08:15:34;;;;;;;4.50;3.25;;;20.80;62.20;;;;;;4972933;28;20022;-71
2022/09/30 08:18:00;;;;;;;4.93;3.15;;;20.80;62.40;;;;;;4961578;28;20035;-70
2022/09/30 08:20:27;;;;;;;4.70;3.28;;;20.80;62.60;;;;;;4953713;28;20033;-71
2022/09/30 08:22:54;;;;;;;7.55;3.63;;;20.80;62.60;;;;;;4953188;28;20396;-72
2022/09/30 08:25:23;;;;;;;6.88;3.88;;;20.80;63.10;;;;;;4951353;28;20039;-71
2022/09/30 08:27:50;;;;;;;5.78;3.72;;;20.80;63.00;;;;;;4958736;28;20054;-71
2022/09/30 08:30:16;;;;;;;11.40;4.13;;;20.90;63.40;;;;;;4963770;28;20027;-70
2022/09/30 08:32:42;;;;;;;12.15;4.50;;;20.90;63.90;;;;;;4971507;28;20031;-71
2022/09/30 08:35:08;;;;;;;11.18;4.47;;;20.90;63.30;;;;;;4972503;28;20117;-71
2022/09/30 08:37:34;;;;;;;9.07;4.78;;;20.90;63.20;;;;;;4955055;28;20029;-71
2022/09/30 08:40:01;;;;;;;11.88;4.03;;;20.90;63.20;;;;;;4973216;28;20042;-71
2022/09/30 08:42:48;;;;;;;11.57;3.95;;;20.90;63.40;;;;;;4973113;28;20057;-70
2022/09/30 08:45:25;;;;;;;8.77;3.80;;;20.90;63.00;;;;;;4972485;28;20030;-70
2022/09/30 08:48:47;;;;;;;15.20;4.35;;;20.90;63.40;;;;;;4972866;28;20030;-72
2022/09/30 08:51:23;;;;;;;5.57;3.45;;;21.00;63.40;;;;;;4904847;29;20493;-70
2022/09/30 08:53:51;;;;;;;10.35;4.22;;;21.00;63.50;;;;;;4893939;29;20620;-71
2022/09/30 08:56:23;;;;;;;6.22;3.78;;;21.00;63.40;;;;;;4933636;28;20047;-71
2022/09/30 08:58:53;;;;;;;9.30;3.63;;;21.00;63.30;;;;;;4952097;28;20668;-71
2022/09/30 09:01:32;;;;;;;7.57;3.88;;;21.00;63.30;;;;;;4935882;28;20054;-71
2022/09/30 09:04:00;;;;;;;10.57;3.95;;;21.00;63.40;;;;;;4952288;28;20042;-71
2022/09/30 09:06:55;;;;;;;8.07;4.10;;;21.00;63.30;;;;;;4950894;28;20495;-70
2022/09/30 09:09:24;;;;;;;10.40;3.97;;;21.00;63.60;;;;;;4961225;28;20031;-71
2022/09/30 09:11:59;;;;;;;7.85;3.72;;;21.00;63.60;;;;;;4972500;28;20030;-71
2022/09/30 09:14:59;;;;;;;9.38;4.10;;;21.10;63.70;;;;;;4966054;28;20042;-71
2022/09/30 09:17:25;;;;;;;6.85;3.97;;;21.10;63.60;;;;;;4917770;28;20511;-71
2022/09/30 09:20:15;;;;;;;13.45;4.22;;;21.10;63.70;;;;;;4953019;28;20024;-71
2022/09/30 09:22:45;;;;;;;8.43;3.92;;;21.10;63.60;;;;;;4958779;28;20502;-71
2022/09/30 09:25:18;;;;;;;10.65;4.30;;;21.10;63.70;;;;;;4949058;28;20484;-71
2022/09/30 09:27:59;;;;;;;7.45;3.78;;;21.20;63.80;;;;;;4951427;28;20098;-71
2022/09/30 09:30:29;;;;;;;12.32;3.97;;;21.10;63.80;;;;;;4949007;28;20086;-72
2022/09/30 09:32:59;;;;;;;6.70;3.85;;;21.10;63.90;;;;;;4942536;23;20080;-75
2022/09/30 09:35:28;;;;;;;;;;;21.10;64.00;;;;;;4930991;29;20039;-74
2022/09/30 09:38:34;;;;;;;8.98;3.92;;;21.10;64.00;;;;;;4916175;29;19982;-73
2022/09/30 09:41:25;;;;;;;8.57;4.38;;;21.10;64.00;;;;;;4889533;29;20044;-75
2022/09/30 09:44:28;;;;;;;7.25;4.28;;;21.00;64.10;;;;;;4905248;29;20040;-74
2022/09/30 09:47:12;;;;;;;7.10;3.78;;;21.00;64.20;;;;;;4913052;29;20380;-74
2022/09/30 09:49:51;;;;;;;8.32;4.47;;;21.00;64.20;;;;;;4931355;29;20052;-75
2022/09/30 09:52:23;;;;;;;7.85;4.05;;;21.00;64.80;;;;;;4923632;29;20068;-75
2022/09/30 09:54:51;;;;;;;9.18;4.15;;;21.00;64.30;;;;;;4900276;29;20044;-75
2022/09/30 09:57:32;;;;;;;13.63;4.00;;;21.00;64.50;;;;;;4902566;29;20099;-75
2022/09/30 10:01:09;;;;;;;12.48;4.05;;;21.00;64.50;;;;;;4915589;29;20574;-74
2022/09/30 10:03:18;;;;;;;15.30;4.53;;;21.00;64.50;;;;;;4909562;29;20510;-75
2022/09/30 10:05:58;;;;;;;9.20;3.97;;;21.10;64.70;;;;;;4901170;29;20036;-75
2022/09/30 10:08:34;;;;;;;;;;;21.10;64.50;;;;;;4931060;29;20078;-74
2022/09/30 10:11:05;;;;;;;7.38;4.20;;;21.10;64.50;;;;;;4918206;29;19977;-75
2022/09/30 10:13:37;;;;;;;10.52;4.05;;;21.10;64.60;;;;;;4920377;29;20598;-76
2022/09/30 10:16:03;;;;;;;10.50;4.20;;;21.10;64.80;;;;;;4896938;29;20043;-75
2022/09/30 10:18:36;;;;;;;9.30;4.03;;;21.20;65.20;;;;;;4920946;29;20032;-75
2022/09/30 10:21:17;;;;;;;9.07;4.53;;;21.30;65.80;;;;;;4915663;29;20039;-75
2022/09/30 10:23:43;;;;;;;12.00;4.70;;;21.30;65.90;;;;;;4911388;29;20400;-75
2022/09/30 10:26:42;;;;;;;10.77;4.43;;;21.30;65.80;;;;;;4910049;29;20035;-75
2022/09/30 10:29:32;;;;;;;17.15;8.63;;;21.30;65.40;;;;;;4901234;29;20509;-75
2022/09/30 10:32:05;;;;;;;14.68;6.57;;;21.20;65.20;;;;;;4910443;29;20058;-75
2022/09/30 10:35:02;;;;;;;13.13;6.15;;;21.30;65.30;;;;;;4916654;29;20028;-75
2022/09/30 10:37:36;;;;;;;12.85;5.80;;;21.20;65.30;;;;;;4893666;29;20040;-75
2022/09/30 10:40:06;;;;;;;12.05;5.90;;;21.20;65.30;;;;;;4928677;29;20141;-75
2022/09/30 10:42:33;;;;;;;;;;;21.20;65.40;;;;;;4915073;29;20039;-75
2022/09/30 10:45:08;;;;;;;14.50;6.85;;;21.20;65.10;;;;;;4924837;29;20082;-75
2022/09/30 10:47:42;;;;;;;14.93;6.65;;;21.20;64.50;;;;;;4917933;29;20107;-74
2022/09/30 10:50:16;;;;;;;18.05;6.75;;;21.20;64.70;;;;;;4922200;29;20067;-74
2022/09/30 10:53:03;;;;;;;21.33;6.20;;;21.20;64.80;;;;;;4926066;29;20044;-77
2022/09/30 10:55:42;;;;;;;14.50;6.63;;;21.10;64.90;;;;;;4930753;29;20499;-78
2022/09/30 10:58:40;;;;;;;11.25;5.45;;;21.10;64.80;;;;;;4910472;29;20449;-78
2022/09/30 11:01:24;;;;;;;11.45;5.40;;;21.10;64.30;;;;;;4910065;29;20036;-76
2022/09/30 11:04:14;;;;;;;17.48;5.43;;;21.00;61.50;;;;;;4912378;29;20051;-76
2022/09/30 11:06:41;;;;;;;;;;;21.00;61.00;;;;;;4900473;29;20032;-76
2022/09/30 11:09:42;;;;;;;13.27;5.63;;;21.00;61.20;;;;;;4914065;29;19998;-76
2022/09/30 11:12:53;;;;;;;11.10;5.80;;;21.00;62.10;;;;;;4905998;29;20067;-75
2022/09/30 11:15:28;;;;;;;11.02;5.72;;;21.10;62.80;;;;;;4924720;29;20086;-74
2022/09/30 11:18:09;;;;;;;15.27;5.30;;;21.10;63.40;;;;;;4910724;29;20122;-73
2022/09/30 11:20:44;;;;;;;13.07;5.82;;;21.10;63.00;;;;;;4921980;29;20032;-73
2022/09/30 11:23:23;;;;;;;13.07;5.53;;;21.10;63.00;;;;;;4912022;29;20032;-73
2022/09/30 11:26:03;;;;;;;11.73;5.20;;;21.10;63.60;;;;;;4929413;29;20066;-74
2022/09/30 11:29:23;;;;;;;11.10;4.82;;;21.10;63.90;;;;;;4931867;29;20280;-74
2022/09/30 11:32:01;;;;;;;12.55;5.15;;;21.10;64.50;;;;;;4884248;29;20035;-74
2022/09/30 11:35:01;;;;;;;10.82;4.78;;;21.10;64.50;;;;;;4913900;29;20066;-73
2022/09/30 11:37:48;;;;;;;10.88;5.18;;;21.10;64.40;;;;;;4917968;29;20032;-73
2022/09/30 11:40:29;;;;;;;12.13;5.47;;;21.10;64.20;;;;;;4916747;29;20031;-73
2022/09/30 11:43:24;;;;;;;10.75;5.10;;;21.00;64.50;;;;;;4927859;29;20028;-75
2022/09/30 11:46:08;;;;;;;11.90;5.13;;;21.10;65.00;;;;;;4911103;29;20036;-71
2022/09/30 11:48:58;;;;;;;10.65;4.70;;;21.10;64.80;;;;;;4904382;29;20036;-72
2022/09/30 11:51:24;;;;;;;9.52;4.82;;;21.00;64.60;;;;;;4927774;29;20032;-72
2022/09/30 11:54:00;;;;;;;9.45;4.63;;;21.00;63.80;;;;;;4918040;29;20472;-72
2022/09/30 11:56:34;;;;;;;8.88;4.55;;;21.00;63.10;;;;;;4906258;29;20040;-72
2022/09/30 11:59:05;;;;;;;10.63;3.70;;;20.90;62.10;;;;;;4919747;29;20504;-72
2022/09/30 12:01:37;;;;;;;11.35;3.25;;;20.90;60.80;;;;;;4927874;29;20028;-72
2022/09/30 12:04:14;;;;;;;6.43;3.33;;;20.80;59.80;;;;;;4919989;29;20028;-72
2022/09/30 12:06:52;;;;;;;7.63;3.40;;;20.80;59.20;;;;;;4921061;29;20043;-72
2022/09/30 12:09:31;;;;;;;7.72;3.22;;;20.70;58.80;;;;;;4916239;29;20051;-73
2022/09/30 12:12:00;;;;;;;7.87;3.20;;;20.70;57.70;;;;;;4928854;29;20408;-73
2022/09/30 12:14:35;;;;;;;6.35;2.80;;;20.70;57.40;;;;;;4921263;29;20272;-72
2022/09/30 12:17:06;;;;;;;7.00;2.58;;;20.70;57.50;;;;;;4920622;29;20425;-72
2022/09/30 12:19:46;;;;;;;4.50;2.25;;;20.70;57.20;;;;;;4930161;29;20036;-72
2022/09/30 12:22:22;;;;;;;7.38;2.60;;;20.70;56.10;;;;;;4930886;29;20032;-72
2022/09/30 12:24:48;;;;;;;6.40;2.50;;;20.70;56.00;;;;;;4915991;29;20032;-72
2022/09/30 12:27:18;;;;;;;4.15;2.17;;;20.70;56.50;;;;;;4933299;29;20783;-72
2022/09/30 12:32:40;;;;;;;7.32;2.30;;;20.70;54.60;;;;;;4928019;29;20062;-73
2022/09/30 12:35:18;;;;;;;11.75;2.40;;;20.70;55.10;;;;;;4920807;29;20489;-73
2022/09/30 12:37:51;;;;;;;7.57;2.22;;;20.70;54.60;;;;;;4906288;29;20037;-72
2022/09/30 12:40:42;;;;;;;22.27;2.20;;;20.70;54.30;;;;;;4921115;29;20046;-72
2022/09/30 12:43:11;;;;;;;6.28;1.90;;;20.70;54.00;;;;;;4922900;29;20058;-73
2022/09/30 12:45:53;;;;;;;7.10;2.10;;;20.80;55.50;;;;;;4911503;29;20370;-72
2022/09/30 12:48:25;;;;;;;14.57;7.60;;;20.80;54.80;;;;;;4916720;29;20036;-73
2022/09/30 12:50:56;;;;;;;27.48;16.88;;;20.70;54.40;;;;;;4916295;29;20033;-73
2022/09/30 12:53:29;;;;;;;22.38;13.90;;;20.70;54.70;;;;;;4915313;29;20164;-73
2022/09/30 12:56:08;;;;;;;16.55;9.63;;;20.70;55.10;;;;;;4914125;29;20159;-70
2022/09/30 12:58:45;;;;;;;17.67;9.40;;;20.70;54.60;;;;;;4916652;29;20023;-70
2022/09/30 13:01:15;;;;;;;16.30;8.77;;;20.80;54.80;;;;;;4917755;29;20058;-71
2022/09/30 13:04:07;;;;;;;17.92;9.95;;;20.80;54.70;;;;;;4915633;29;20111;-71
2022/09/30 13:06:46;;;;;;;17.13;9.15;;;20.80;53.50;;;;;;4914873;29;20040;-71
2022/09/30 13:09:15;;;;;;;19.88;9.02;;;20.80;53.50;;;;;;4914736;29;20043;-71
2022/09/30 13:11:43;;;;;;;20.95;9.07;;;20.80;54.00;;;;;;4915936;29;20052;-71
2022/09/30 13:14:34;;;;;;;22.23;8.88;;;20.90;54.50;;;;;;4913077;29;20568;-71
2022/09/30 13:17:21;;;;;;;17.65;8.57;;;20.80;54.80;;;;;;4904601;29;20134;-71
2022/09/30 13:19:50;;;;;;;18.70;8.85;;;20.80;55.20;;;;;;4917349;29;20792;-71
2022/09/30 13:22:19;;;;;;;20.58;9.52;;;20.80;55.40;;;;;;4915805;29;20449;-71
2022/09/30 13:24:59;;;;;;;16.67;8.07;;;20.80;55.90;;;;;;4914776;29;20075;-70